Nearby Weather Observations


KTIP - Rantoul, Illinois, USA
Distance from station: ENE 12mi, 19km
Updated: Wed, 20-Jun-2018 7:15pm CDT
Light thunderstorm, Rain, Overcast
Light thunderstorm, Rain, Overcast
 Wind from ESE
Wind: ESE 10 mph , 17 km/h, Gust: 26 mph , 43 km/h
Temperature: 73°F , 23°C
Dew Point: 72°F , 22°C
Humidity: 94%
Barometer: 29.82 inHg , 1009.8 hPa
Summary: Light thunderstorm, Rain
Clouds: Overcast
Visibility: 4 miles , 6 km
Cloud details: Partly cloudy 500 ft
Partly cloudy 1300 ft
Overcast 2800 ft
2018/06/21 00:15 KTIP 210015Z AUTO 11009G23KT 4SM -TSRA SCT005 SCT013 OVC028 23/22 A2982 RMK AO2 LTG DSNT ALQS P0019 T02270215
KCMI - Champaign/Urbana, Illinois, USA
Distance from station: SSE 14mi, 22km
Updated: Wed, 20-Jun-2018 6:53pm CDT
Clear
Clear
 Wind from SSW
Wind: SSW 6 mph , 9 km/h
Temperature: 82°F , 28°C
Heat Index: 87°F , 31°C
Dew Point: 73°F , 23°C
Humidity: 74%
Barometer: 29.82 inHg , 1009.8 hPa
Clouds: Clear
Visibility: 10 miles , 16 km
2018/06/20 23:53 KCMI 202353Z 21005KT 10SM CLR 28/23 A2982 RMK AO2 SLP090 T02780233 10294 20272 55004
 
KBMI - Bloomington/Norm, Illinois, USA
Distance from station: WNW 34mi, 55km
Updated: Wed, 20-Jun-2018 6:56pm CDT
Few Clouds
Few Clouds
 Wind from S
Wind: S 8 mph , 13 km/h
Temperature: 82°F , 28°C
Heat Index: 87°F , 31°C
Dew Point: 73°F , 23°C
Humidity: 74%
Barometer: 29.81 inHg , 1009.5 hPa
Clouds: Few Clouds
Visibility: 10 miles , 16 km
Cloud details: Few Clouds 5000 ft
2018/06/20 23:56 KBMI 202356Z 17007KT 10SM FEW050 28/23 A2981 RMK AO2 LTG DSNT N SLP104 T02780228 10300 20278 53005
KDEC - Decatur, Illinois, USA
Distance from station: SW 37mi, 60km
Updated: Wed, 20-Jun-2018 6:54pm CDT
Few Clouds
Few Clouds
 Wind from SSW
Wind: SSW 9 mph , 15 km/h
Temperature: 84°F , 29°C
Heat Index: 90°F , 32°C
Dew Point: 73°F , 23°C
Humidity: 70%
Barometer: 29.80 inHg , 1009.1 hPa
Clouds: Few Clouds
Visibility: 10 miles , 16 km
Cloud details: Few Clouds 2900 ft
2018/06/20 23:54 KDEC 202354Z 20008KT 10SM FEW029 29/23 A2980 RMK AO2 SLP086 T02890228 10300 20283 55003
 
KDNV - Danville, Illinois, USA
Distance from station: E 40mi, 65km
Updated: Wed, 20-Jun-2018 7:15pm CDT
Clear
Clear
 Wind from SSW
Wind: SSW 6 mph , 9 km/h
Temperature: 81°F , 27°C
Heat Index: 86°F , 30°C
Dew Point: 73°F , 23°C
Humidity: 79%
Barometer: 29.80 inHg , 1009.1 hPa
Clouds: Clear
Visibility: 10 miles , 16 km
2018/06/21 00:15 KDNV 210015Z AUTO 21005KT 10SM CLR 27/23 A2980 RMK AO2 T02680232
KAAA - Lincoln, Illinois, USA
Distance from station: W 52mi, 83km
Updated: Wed, 20-Jun-2018 7:15pm CDT
Partly cloudy
Partly cloudy
 Wind from SSE
Wind: SSE 5 mph , 7 km/h
Temperature: 84°F , 29°C
Heat Index: 94°F , 34°C
Dew Point: 77°F , 25°C
Humidity: 79%
Barometer: 29.78 inHg , 1008.5 hPa
Clouds: Partly cloudy
Visibility: 10 miles , 16 km
Cloud details: Partly cloudy 3000 ft
Partly cloudy 3500 ft
2018/06/21 00:15 KAAA 210015Z AUTO 16004KT 10SM SCT030 SCT035 29/25 A2978 RMK AO2 LTG DSNT NW T02850250
 
KMTO - Mattoon/Charlest, Illinois, USA
Distance from station: S 52mi, 84km
Updated: Wed, 20-Jun-2018 6:53pm CDT
Few Clouds
Few Clouds
 Wind from S
Wind: S 6 mph , 9 km/h
Temperature: 82°F , 28°C
Heat Index: 87°F , 31°C
Dew Point: 73°F , 23°C
Humidity: 74%
Barometer: 29.81 inHg , 1009.5 hPa
Clouds: Few Clouds
Visibility: 10 miles , 16 km
Cloud details: Few Clouds 2700 ft
2018/06/20 23:53 KMTO 202353Z AUTO 19005KT 10SM FEW027 28/23 A2981 RMK AO2 SLP088 T02830233 10289 20267 55006
KSPI - Springfield, Illinois, USA
Distance from station: WSW 74mi, 120km
Updated: Wed, 20-Jun-2018 6:52pm CDT
Few Clouds
Few Clouds
 Wind from S
Wind: S 9 mph , 15 km/h
Temperature: 86°F , 30°C
Heat Index: 95°F , 35°C
Dew Point: 75°F , 24°C
Humidity: 70%
Barometer: 29.78 inHg , 1008.5 hPa
Clouds: Few Clouds
Visibility: 10 miles , 16 km
Cloud details: Few Clouds 4400 ft
2018/06/20 23:52 KSPI 202352Z 18008KT 10SM FEW044 30/24 A2978 RMK AO2 RAB13E23 SLP078 P0000 60000 T03000244 10317 20278 55005
 
KLAF - Lafayette, Indiana, USA
Distance from station: E 76mi, 123km
Updated: Wed, 20-Jun-2018 6:54pm CDT
Clear
Clear
 Wind from W
Wind: W 3 mph , 6 km/h
Temperature: 81°F , 27°C
Heat Index: 86°F , 30°C
Dew Point: 73°F , 23°C
Humidity: 79%
Barometer: 29.79 inHg , 1008.8 hPa
Clouds: Clear
Visibility: 10 miles , 16 km
2018/06/20 23:54 KLAF 202354Z 28003KT 10SM CLR 27/23 A2979 RMK AO2 SLP083 T02720228 10289 20256 55008
KPIA - Peoria, Illinois, USA
Distance from station: WNW 76mi, 123km
Updated: Wed, 20-Jun-2018 7:11pm CDT
Mostly cloudy
Mostly cloudy
 Wind from NNW
Wind: NNW 13 mph , 20 km/h, Gust: 23 mph , 37 km/h
Temperature: 75°F , 24°C
Dew Point: 66°F , 19°C
Humidity: 74%
Barometer: 29.78 inHg , 1008.5 hPa
Clouds: Mostly cloudy
Visibility: 10 miles , 16 km
Cloud details: Mostly cloudy 2600 ft
Mostly cloudy 8000 ft
2018/06/21 00:11 KPIA 210011Z 33011G20KT 10SM BKN026 BKN080 24/19 A2978 RMK AO2 LTG DSNT SW-N T02390194
 
KHUF - Terre Haute, Indiana, USA
Distance from station: SE 77mi, 124km
Updated: Wed, 20-Jun-2018 6:53pm CDT
Clear
Clear
 Wind from S
Wind: S 7 mph , 11 km/h
Temperature: 82°F , 28°C
Heat Index: 86°F , 30°C
Dew Point: 72°F , 22°C
Humidity: 70%
Barometer: 29.81 inHg , 1009.5 hPa
Clouds: Clear
Visibility: 10 miles , 16 km
2018/06/20 23:53 KHUF 202353Z 19006KT 10SM CLR 28/22 A2981 RMK AO2 SLP091 T02830222 10294 20256 55010
K1H2 - Effingham, Illinois, USA
Distance from station: S 80mi, 129km
Updated: Wed, 20-Jun-2018 7:15pm CDT
Clear
Clear
 Wind from SSE
Wind: SSE 3 mph , 6 km/h
Temperature: 82°F , 28°C
Heat Index: 85°F , 29°C
Dew Point: 68°F , 20°C
Humidity: 62%
Barometer: 29.83 inHg , 1010.2 hPa
Clouds: Clear
Visibility: 10 miles , 16 km
2018/06/21 00:15 K1H2 210015Z AUTO 16003KT 10SM CLR 28/20 A2983 RMK AO2 T02780201
 
KIND - Indianapolis, Indiana, USA
Distance from station: ESE 117mi, 133km
Updated: Wed, 20-Jun-2018 6:54pm CDT
Partly cloudy
Partly cloudy
 Wind from WSW
Wind: WSW 8 mph , 13 km/h
Temperature: 82°F , 28°C
Heat Index: 86°F , 30°C
Dew Point: 72°F , 22°C
Humidity: 70%
Barometer: 29.80 inHg , 1009.1 hPa
Clouds: Partly cloudy
Visibility: 10 miles , 16 km
Cloud details: Few Clouds 4000 ft
Partly cloudy 17000 ft
Partly cloudy 25000 ft
2018/06/20 23:54 KIND 202354Z 24007KT 10SM FEW040 SCT170 SCT250 28/22 A2980 RMK AO2 SLP085 CB DSNT E AND SW MOV E T02830217 10300 20272 55010
KORD - Chicago O'hare, Illinois, USA
Distance from station: N 126mi, 203km
Updated: Wed, 20-Jun-2018 6:51pm CDT
Mostly cloudy
Mostly cloudy
 Wind from ENE
Wind: ENE 8 mph , 13 km/h
Temperature: 70°F , 21°C
Dew Point: 61°F , 16°C
Humidity: 73%
Barometer: 29.86 inHg , 1011.2 hPa
Clouds: Mostly cloudy
Visibility: 10 miles , 16 km
Cloud details: Few Clouds 3500 ft
Few Clouds 16000 ft
Mostly cloudy 25000 ft
2018/06/20 23:51 KORD 202351Z 06007KT 10SM FEW035 FEW160 BKN250 21/16 A2986 RMK AO2 SLP108 T02110156 10250 20211 53003
 
KSTL - St. Louis, Missouri, USA
Distance from station: SW 150mi, 185km
Updated: Wed, 20-Jun-2018 6:51pm CDT
Light thunderstorm, Rain, Mostly cloudy
Light thunderstorm, Rain, Mostly cloudy
 Wind from WSW
Wind: WSW 10 mph , 17 km/h
Temperature: 79°F , 26°C
Dew Point: 73°F , 23°C
Humidity: 84%
Barometer: 29.81 inHg , 1009.5 hPa
Summary: Light thunderstorm, Rain
Clouds: Mostly cloudy
Visibility: 8 miles , 13 km
Cloud details: Partly cloudy 4300 ft
Mostly cloudy 8000 ft
Mostly cloudy 25000 ft
2018/06/20 23:51 KSTL 202351Z 24009KT 8SM -TSRA SCT043CB BKN080 BKN250 26/23 A2981 RMK AO2 PK WND 20039/2326 WSHFT 2329 LTG DSNT NW-E RAB31 TSB31 SLP083 OCNL LTGICCG NW-NE TS NW-NE MOV NE P0015 60015 T02560228 10333 20244 51013